Normed Antwerpen — V2DG9 — position and weather

sailwx.info

Track history (hours):
 
Tides and Currents Weather Stations Pressure Air Temp Water Temp Dewpoint Dewpoint Depression Visibility Wind Speed Wind Dir Waves Ship Positions

Normed Antwerpen

Last reported at 2016-Dec-04 14:33 UTC. Time now 2016-Dec-05 00:28 UTC.
Position N 34°36' E 032°42'.

Length 130 m; draft 6.2 m.

Type: Ship. MMSI: 305210993.

Date/timePositionNaut miles runAvg speedWind from/ knotsBaromVisibWave heightAir tempDewpointWater temp
2016-Dec-04 14:33N 34°36' E 032°42'1212.0
2016-Dec-04 13:33N 34°32' E 032°56'9 8.7
2016-Dec-04 12:33N 34°38' E 033°03'2 2.3
2016-Dec-04 11:33N 34°39' E 033°01'0 0.0
2016-Dec-04 10:32N 34°39' E 033°01'0 0.0
2016-Dec-04 09:33N 34°39' E 033°01'0 0.0
2016-Dec-04 08:33N 34°39' E 033°01'0 0.0
2016-Dec-04 07:32N 34°39' E 033°01'0 0.0
2016-Dec-04 06:32N 34°39' E 033°01'0 0.0
2016-Dec-04 05:31N 34°39' E 033°01'1 0.8
2016-Dec-04 04:33N 34°39' E 033°02'1 1.3
2016-Dec-04 03:33N 34°40' E 033°03'0 0.0
2016-Dec-04 02:33N 34°40' E 033°03'0 0.0
2016-Dec-04 01:33N 34°40' E 033°03'0 0.0
2016-Dec-04 00:32N 34°40' E 033°03'0 0.0
2016-Dec-03 23:32N 34°40' E 033°03'0 0.0
2016-Dec-03 22:31N 34°40' E 033°03'0 0.0
2016-Dec-03 21:32N 34°40' E 033°03'0 0.0
2016-Dec-03 20:32N 34°40' E 033°03'0 0.0
2016-Dec-03 19:31N 34°40' E 033°03'0 0.0
2016-Dec-03 18:31N 34°40' E 033°03'0 0.0
2016-Dec-03 17:33N 34°40' E 033°03'0 0.0
2016-Dec-03 16:34N 34°40' E 033°03'6 6.2
2016-Dec-03 15:33N 34°34' E 033°05'1312.8
2016-Dec-03 14:33N 34°33' E 032°49'  
2016-Nov-30 20:13N 37°49' E 015°59'1312.4
2016-Nov-30 19:11N 37°53' E 015°43'711.5
2016-Nov-30 18:33N 37°57' E 015°36'1212.2
2016-Nov-30 17:34N 38°10' E 015°35'10 9.7
2016-Nov-30 16:33N 38°19' E 015°38'1212.4
2016-Nov-30 15:33N 38°20' E 015°23'1312.8
2016-Nov-30 14:34N 38°20' E 015°06'1313.1
2016-Nov-30 13:33N 38°20' E 014°50'1412.8
2016-Nov-30 12:29N 38°21' E 014°32'4112.6
2016-Nov-30 09:16N 38°24' E 013°41'912.3
2016-Nov-30 08:33N 38°25' E 013°29'1312.1
2016-Nov-30 07:30N 38°26' E 013°13'45712.0
2016-Nov-28 17:26N 39°12' E 003°29'910.7
2016-Nov-28 16:33N 39°13' E 003°17'5 5.1
2016-Nov-28 15:33N 39°13' E 003°10'1212.1
2016-Nov-28 14:33N 39°16' E 002°55'1212.3
2016-Nov-28 13:33N 39°23' E 002°42'1010.0
2016-Nov-28 12:31N 39°33' E 002°38'0 0.1
2016-Nov-28 11:31N 39°33' E 002°38'0 0.0
2016-Nov-28 10:33N 39°33' E 002°38'0 0.0
2016-Nov-28 09:33N 39°33' E 002°38'0 0.0
2016-Nov-28 08:32N 39°33' E 002°38'0 0.0
2016-Nov-28 07:33N 39°33' E 002°38'1 0.7
2016-Nov-28 06:33N 39°32' E 002°39'9 8.8
2016-Nov-28 05:33N 39°25' E 002°34'1111.0
2016-Nov-28 04:33N 39°16' E 002°24'1111.2
2016-Nov-28 03:33N 39°08' E 002°14'1211.5
2016-Nov-28 02:33N 38°59' E 002°05'1211.7
2016-Nov-28 01:33N 38°51' E 001°54'1411.7
2016-Nov-28 00:23N 38°41' E 001°43'37111.7
2016-Nov-26 16:34N 35°59' W 005°18'26910.7
2016-Nov-25 15:28N 38°25' W 010°02'1112.1
2016-Nov-25 14:33N 38°36' W 010°05'1211.9
2016-Nov-25 13:33N 38°47' W 010°07'1212.0
2016-Nov-25 12:33N 38°59' W 010°07'1212.3
2016-Nov-25 11:33N 39°12' W 010°07'  
Track history (hours):
 
Tides and Currents Weather Stations Pressure Air Temp Water Temp Dewpoint Dewpoint Depression Visibility Wind Speed Wind Dir Waves Ship Positions

Normed Antwerpen

Last reported at 2016-Dec-04 14:33 UTC. Time now 2016-Dec-05 00:28 UTC.
Position N 34°36' E 032°42'.

Length 130 m; draft 6.2 m.

Type: Ship. MMSI: 305210993.

Date/timePositionNaut miles runAvg speedWind from/ knotsBaromVisibWave heightAir tempDewpointWater temp
2016-Dec-04 14:33N 34°36' E 032°42'1212.0
2016-Dec-04 13:33N 34°32' E 032°56'9 8.7
2016-Dec-04 12:33N 34°38' E 033°03'2 2.3
2016-Dec-04 11:33N 34°39' E 033°01'0 0.0
2016-Dec-04 10:32N 34°39' E 033°01'0 0.0
2016-Dec-04 09:33N 34°39' E 033°01'0 0.0
2016-Dec-04 08:33N 34°39' E 033°01'0 0.0
2016-Dec-04 07:32N 34°39' E 033°01'0 0.0
2016-Dec-04 06:32N 34°39' E 033°01'0 0.0
2016-Dec-04 05:31N 34°39' E 033°01'1 0.8
2016-Dec-04 04:33N 34°39' E 033°02'1 1.3
2016-Dec-04 03:33N 34°40' E 033°03'0 0.0
2016-Dec-04 02:33N 34°40' E 033°03'0 0.0
2016-Dec-04 01:33N 34°40' E 033°03'0 0.0
2016-Dec-04 00:32N 34°40' E 033°03'0 0.0
2016-Dec-03 23:32N 34°40' E 033°03'0 0.0
2016-Dec-03 22:31N 34°40' E 033°03'0 0.0
2016-Dec-03 21:32N 34°40' E 033°03'0 0.0
2016-Dec-03 20:32N 34°40' E 033°03'0 0.0
2016-Dec-03 19:31N 34°40' E 033°03'0 0.0
2016-Dec-03 18:31N 34°40' E 033°03'0 0.0
2016-Dec-03 17:33N 34°40' E 033°03'0 0.0
2016-Dec-03 16:34N 34°40' E 033°03'6 6.2
2016-Dec-03 15:33N 34°34' E 033°05'1312.8
2016-Dec-03 14:33N 34°33' E 032°49'  
2016-Nov-30 20:13N 37°49' E 015°59'1312.4
2016-Nov-30 19:11N 37°53' E 015°43'711.5
2016-Nov-30 18:33N 37°57' E 015°36'1212.2
2016-Nov-30 17:34N 38°10' E 015°35'10 9.7
2016-Nov-30 16:33N 38°19' E 015°38'1212.4
2016-Nov-30 15:33N 38°20' E 015°23'1312.8
2016-Nov-30 14:34N 38°20' E 015°06'1313.1
2016-Nov-30 13:33N 38°20' E 014°50'1412.8
2016-Nov-30 12:29N 38°21' E 014°32'4112.6
2016-Nov-30 09:16N 38°24' E 013°41'912.3
2016-Nov-30 08:33N 38°25' E 013°29'1312.1
2016-Nov-30 07:30N 38°26' E 013°13'45712.0
2016-Nov-28 17:26N 39°12' E 003°29'910.7
2016-Nov-28 16:33N 39°13' E 003°17'5 5.1
2016-Nov-28 15:33N 39°13' E 003°10'1212.1
2016-Nov-28 14:33N 39°16' E 002°55'1212.3
2016-Nov-28 13:33N 39°23' E 002°42'1010.0
2016-Nov-28 12:31N 39°33' E 002°38'0 0.1
2016-Nov-28 11:31N 39°33' E 002°38'0 0.0
2016-Nov-28 10:33N 39°33' E 002°38'0 0.0
2016-Nov-28 09:33N 39°33' E 002°38'0 0.0
2016-Nov-28 08:32N 39°33' E 002°38'0 0.0
2016-Nov-28 07:33N 39°33' E 002°38'1 0.7
2016-Nov-28 06:33N 39°32' E 002°39'9 8.8
2016-Nov-28 05:33N 39°25' E 002°34'1111.0
2016-Nov-28 04:33N 39°16' E 002°24'1111.2
2016-Nov-28 03:33N 39°08' E 002°14'1211.5
2016-Nov-28 02:33N 38°59' E 002°05'1211.7
2016-Nov-28 01:33N 38°51' E 001°54'1411.7
2016-Nov-28 00:23N 38°41' E 001°43'37111.7
2016-Nov-26 16:34N 35°59' W 005°18'26910.7
2016-Nov-25 15:28N 38°25' W 010°02'1112.1
2016-Nov-25 14:33N 38°36' W 010°05'1211.9
2016-Nov-25 13:33N 38°47' W 010°07'1212.0
2016-Nov-25 12:33N 38°59' W 010°07'1212.3
2016-Nov-25 11:33N 39°12' W 010°07'  

Dump ship's entire track history